createdAt,value
2023-03-29T00:02:19.701Z,101590.00
2023-03-29T00:04:47.061Z,101581.97
2023-03-29T00:07:14.272Z,101579.72
2023-03-29T00:09:42.533Z,101577.00
2023-03-29T00:12:11.152Z,101561.19
2023-03-29T00:14:38.178Z,101566.78
2023-03-29T00:17:05.356Z,101559.69
2023-03-29T00:19:35.725Z,101552.88
2023-03-29T00:22:06.265Z,101544.22
2023-03-29T00:24:33.442Z,101539.19
2023-03-29T00:27:00.401Z,101534.91
2023-03-29T00:29:27.458Z,101537.31
2023-03-29T00:31:56.019Z,101534.72
2023-03-29T00:34:30.833Z,101518.19
2023-03-29T00:36:59.127Z,101514.94
2023-03-29T00:39:27.992Z,101506.91
2023-03-29T00:41:55.417Z,101516.59
2023-03-29T00:44:54.736Z,101516.72
2023-03-29T00:47:42.633Z,101510.63
2023-03-29T00:50:31.793Z,101510.75
2023-03-29T00:53:03.728Z,101499.38
2023-03-29T00:55:47.169Z,101508.19
2023-03-29T00:58:21.285Z,101492.50
2023-03-29T01:01:15.607Z,101488.94
2023-03-29T01:03:54.740Z,101493.22
2023-03-29T01:06:28.995Z,101495.69
2023-03-29T01:09:03.092Z,101495.81
2023-03-29T01:11:51.395Z,101487.03
2023-03-29T01:14:40.976Z,101503.66
2023-03-29T01:17:08.458Z,101494.09
2023-03-29T01:19:44.109Z,101491.53
2023-03-29T01:23:14.058Z,101490.66
2023-03-29T01:25:45.551Z,101481.09
2023-03-29T01:28:29.268Z,101485.50
2023-03-29T01:31:19.740Z,101475.88
2023-03-29T01:33:55.598Z,101470.00
2023-03-29T01:36:41.324Z,101469.94
2023-03-29T01:39:08.702Z,101452.59
2023-03-29T01:41:49.684Z,101449.19
2023-03-29T01:44:34.344Z,101447.47
2023-03-29T01:47:18.712Z,101450.81
2023-03-29T01:50:02.854Z,101434.41
2023-03-29T01:52:39.768Z,101442.13
2023-03-29T01:55:39.472Z,101436.97
2023-03-29T01:58:10.369Z,101432.56
2023-03-29T02:00:39.917Z,101434.34
2023-03-29T02:03:10.304Z,101440.63
2023-03-29T02:05:42.456Z,101445.84
2023-03-29T02:08:12.841Z,101434.50
2023-03-29T02:10:40.629Z,101435.44
2023-03-29T02:13:07.645Z,101431.94
2023-03-29T02:15:34.720Z,101432.72
2023-03-29T02:18:03.930Z,101433.59
2023-03-29T02:20:39.057Z,101436.28
2023-03-29T02:23:23.168Z,101432.88
2023-03-29T02:25:53.793Z,101424.94
2023-03-29T02:28:24.156Z,101430.28
2023-03-29T02:31:08.623Z,101413.69
2023-03-29T02:34:10.121Z,101418.66
2023-03-29T02:37:03.871Z,101411.03
2023-03-29T02:39:33.855Z,101409.25
2023-03-29T02:42:03.579Z,101408.53
2023-03-29T02:44:37.167Z,101405.03
2023-03-29T02:47:16.118Z,101411.19
2023-03-29T02:49:43.788Z,101410.44
2023-03-29T02:52:16.287Z,101406.88
2023-03-29T02:54:46.599Z,101408.66
2023-03-29T02:57:13.800Z,101409.47
2023-03-29T02:59:43.922Z,101401.69
2023-03-29T03:02:15.030Z,101403.47
2023-03-29T03:04:42.116Z,101400.09
2023-03-29T03:07:09.436Z,101390.47
2023-03-29T03:09:36.453Z,101391.34
2023-03-29T03:12:03.494Z,101389.69
2023-03-29T03:14:30.437Z,101395.75
2023-03-29T03:16:57.862Z,101391.22
2023-03-29T03:19:24.894Z,101383.56
2023-03-29T03:21:51.867Z,101387.25
2023-03-29T03:24:19.366Z,101380.19
2023-03-29T03:26:46.397Z,101381.91
2023-03-29T03:29:15.694Z,101374.16
2023-03-29T03:31:43.115Z,101376.78
2023-03-29T03:34:11.031Z,101369.88
2023-03-29T03:36:38.297Z,101371.66
2023-03-29T03:39:07.177Z,101368.22
2023-03-29T03:41:34.962Z,101372.69
2023-03-29T03:44:02.172Z,101379.63
2023-03-29T03:46:29.753Z,101378.88
2023-03-29T03:48:57.689Z,101371.09
2023-03-29T03:51:24.885Z,101370.06
2023-03-29T03:53:52.114Z,101378.06
2023-03-29T03:56:20.496Z,101375.50
2023-03-29T03:58:47.663Z,101378.09
2023-03-29T04:01:14.783Z,101376.50
2023-03-29T04:03:41.811Z,101377.38
2023-03-29T04:06:09.839Z,101374.81
2023-03-29T04:08:37.043Z,101379.16
2023-03-29T04:11:04.721Z,101365.25
2023-03-29T04:13:31.895Z,101364.38
2023-03-29T04:16:01.419Z,101366.09
2023-03-29T04:18:28.920Z,101363.47
2023-03-29T04:20:55.990Z,101364.56
2023-03-29T04:23:22.981Z,101364.47
2023-03-29T04:25:50.169Z,101362.69
2023-03-29T04:28:17.193Z,101354.00
2023-03-29T04:30:46.745Z,101357.59
2023-03-29T04:33:13.758Z,101355.81
2023-03-29T04:35:40.774Z,101351.59
2023-03-29T04:38:10.180Z,101352.44
2023-03-29T04:40:38.372Z,101352.50
2023-03-29T04:43:06.349Z,101353.22
2023-03-29T04:45:33.449Z,101356.00
2023-03-29T04:48:00.547Z,101337.50
2023-03-29T04:50:28.342Z,101343.81
2023-03-29T04:52:55.652Z,101343.75
2023-03-29T04:55:22.627Z,101333.38
2023-03-29T04:57:49.599Z,101338.63
2023-03-29T05:00:17.318Z,101339.50
2023-03-29T05:02:45.404Z,101343.91
2023-03-29T05:05:14.002Z,101349.16
2023-03-29T05:07:41.070Z,101344.03
2023-03-29T05:10:09.329Z,101341.47
2023-03-29T05:12:36.894Z,101354.53
2023-03-29T05:17:55.162Z,101348.47
2023-03-29T05:20:22.292Z,101357.22
2023-03-29T05:22:49.254Z,101355.50
2023-03-29T05:25:17.651Z,101346.06
2023-03-29T05:27:45.908Z,101355.63
2023-03-29T05:30:15.361Z,101354.06
2023-03-29T05:32:42.941Z,101353.22
2023-03-29T05:35:11.355Z,101359.34
2023-03-29T05:37:39.088Z,101354.13
2023-03-29T05:40:10.337Z,101360.28
2023-03-29T05:42:38.658Z,101363.91
2023-03-29T05:45:06.794Z,101369.97
2023-03-29T05:47:33.890Z,101376.19
2023-03-29T05:50:01.010Z,101352.75
2023-03-29T05:52:28.006Z,101354.19
2023-03-29T05:54:54.995Z,101356.75
2023-03-29T05:57:22.334Z,101343.16
2023-03-29T05:59:49.365Z,101342.63
2023-03-29T06:02:16.947Z,101340.13
2023-03-29T06:04:44.914Z,101342.00
2023-03-29T06:07:12.671Z,101341.28
2023-03-29T06:09:39.878Z,101346.69
2023-03-29T06:12:08.287Z,101341.47
2023-03-29T06:14:36.431Z,101338.88
2023-03-29T06:17:03.723Z,101339.84
2023-03-29T06:19:30.757Z,101332.00
2023-03-29T06:21:57.800Z,101342.66
2023-03-29T06:24:25.155Z,101336.56
2023-03-29T06:26:52.492Z,101337.47
2023-03-29T06:29:19.489Z,101340.13
2023-03-29T06:31:46.719Z,101343.69
2023-03-29T06:34:13.863Z,101340.22
2023-03-29T06:36:40.874Z,101334.97
2023-03-29T06:39:08.026Z,101344.66
2023-03-29T06:41:35.110Z,101353.47
2023-03-29T06:44:02.076Z,101342.94
2023-03-29T06:46:29.684Z,101342.13
2023-03-29T06:48:56.967Z,101343.00
2023-03-29T06:51:23.973Z,101352.69
2023-03-29T06:53:51.022Z,101348.34
2023-03-29T06:56:17.998Z,101350.13
2023-03-29T06:58:45.079Z,101348.41
2023-03-29T07:01:12.722Z,101356.34
2023-03-29T07:03:41.154Z,101350.22
2023-03-29T07:06:11.753Z,101359.91
2023-03-29T07:08:47.436Z,101373.09
2023-03-29T07:11:15.283Z,101371.38
2023-03-29T07:13:43.293Z,101377.53
2023-03-29T07:16:15.050Z,101381.09
2023-03-29T07:18:44.258Z,101381.97
2023-03-29T07:21:13.019Z,101383.75
2023-03-29T07:23:40.794Z,101379.34
2023-03-29T07:26:08.656Z,101382.03
2023-03-29T07:28:39.928Z,101381.16
2023-03-29T07:31:11.141Z,101375.00
2023-03-29T07:33:39.422Z,101375.00
2023-03-29T07:36:07.557Z,101372.38
2023-03-29T07:38:34.552Z,101375.91
2023-03-29T07:41:05.813Z,101364.44
2023-03-29T07:43:34.210Z,101376.78
2023-03-29T07:46:03.939Z,101386.47
2023-03-29T07:48:32.457Z,101375.00
2023-03-29T07:50:59.719Z,101370.63
2023-03-29T07:53:27.104Z,101374.16
2023-03-29T07:55:54.851Z,101363.59
2023-03-29T07:58:21.911Z,101360.94
2023-03-29T08:00:49.270Z,101361.84
2023-03-29T08:03:17.184Z,101358.34
2023-03-29T08:05:44.393Z,101366.22
2023-03-29T08:08:11.569Z,101362.66
2023-03-29T08:10:39.583Z,101369.66
2023-03-29T08:13:09.245Z,101359.97
2023-03-29T08:15:39.164Z,101360.88
2023-03-29T08:18:07.662Z,101368.81
2023-03-29T08:20:35.083Z,101366.09
2023-03-29T08:23:02.198Z,101374.00
2023-03-29T08:25:29.225Z,101367.81
2023-03-29T08:27:56.226Z,101372.19
2023-03-29T08:30:23.321Z,101377.44
2023-03-29T08:32:52.994Z,101372.19
2023-03-29T08:35:22.327Z,101381.06
2023-03-29T08:37:49.587Z,101376.66
2023-03-29T08:40:23.168Z,101382.84
2023-03-29T08:43:18.832Z,101369.66
2023-03-29T08:46:06.323Z,101363.53
2023-03-29T08:48:44.449Z,101364.44
2023-03-29T08:51:30.240Z,101357.44
2023-03-29T08:54:13.238Z,101361.84
2023-03-29T08:56:43.398Z,101364.44
2023-03-29T08:59:22.543Z,101373.25
2023-03-29T09:01:53.795Z,101366.22
2023-03-29T09:04:45.040Z,101353.03
2023-03-29T09:07:12.979Z,101352.13
2023-03-29T09:09:42.209Z,101352.09
2023-03-29T09:12:12.197Z,101357.34
2023-03-29T09:15:00.880Z,101362.63
2023-03-29T09:18:06.233Z,101359.91
2023-03-29T09:20:45.134Z,101358.19
2023-03-29T09:24:15.636Z,101351.97
2023-03-29T09:26:53.197Z,101345.75
2023-03-29T09:30:10.478Z,101352.00
2023-03-29T09:33:01.916Z,101349.41
2023-03-29T09:35:55.069Z,101344.13
2023-03-29T09:38:22.937Z,101353.75
2023-03-29T09:40:59.118Z,101362.50
2023-03-29T09:43:40.654Z,101364.28
2023-03-29T09:46:23.854Z,101371.34
2023-03-29T09:48:50.896Z,101368.66
2023-03-29T09:51:21.643Z,101366.91
2023-03-29T09:53:49.750Z,101369.56
2023-03-29T09:56:19.021Z,101365.16
2023-03-29T09:58:47.073Z,101356.41
2023-03-29T10:01:17.466Z,101366.16
2023-03-29T10:03:53.660Z,101345.59
2023-03-29T10:06:24.118Z,101359.75
2023-03-29T10:08:59.123Z,101375.38
2023-03-29T10:11:37.073Z,101365.13
2023-03-29T10:14:46.503Z,101360.78
2023-03-29T10:17:24.485Z,101352.69
2023-03-29T10:20:04.165Z,101359.69
2023-03-29T10:22:37.889Z,101359.97
2023-03-29T10:25:13.250Z,101354.41
2023-03-29T10:27:43.906Z,101346.81
2023-03-29T10:30:21.483Z,101340.13
2023-03-29T10:33:00.390Z,101347.50
2023-03-29T10:35:41.930Z,101335.31
2023-03-29T10:38:20.272Z,101326.75
2023-03-29T10:40:51.714Z,101314.72
2023-03-29T10:43:24.720Z,101314.69
2023-03-29T10:45:54.516Z,101308.84
2023-03-29T10:48:30.513Z,101317.03
2023-03-29T10:51:03.670Z,101314.47
2023-03-29T10:53:34.900Z,101309.22
2023-03-29T10:56:33.051Z,101312.00
2023-03-29T10:59:18.796Z,101319.97
2023-03-29T11:02:14.935Z,101311.38
2023-03-29T11:05:07.332Z,101307.00
2023-03-29T11:07:57.053Z,101294.91
2023-03-29T11:10:32.971Z,101290.72
2023-03-29T11:13:20.977Z,101291.66
2023-03-29T11:16:42.931Z,101299.66
2023-03-29T11:19:28.571Z,101307.56
2023-03-29T11:22:35.328Z,101305.75
2023-03-29T11:25:43.443Z,101297.13
2023-03-29T11:28:19.353Z,101289.25
2023-03-29T11:30:58.697Z,101290.97
2023-03-29T11:33:47.060Z,101305.16
2023-03-29T11:36:50.452Z,101303.47
2023-03-29T11:39:48.329Z,101306.09
2023-03-29T11:42:23.507Z,101294.69
2023-03-29T11:44:55.160Z,101293.00
2023-03-29T11:47:24.129Z,101291.38
2023-03-29T11:50:14.772Z,101288.94
2023-03-29T11:52:51.046Z,101289.03
2023-03-29T11:55:29.267Z,101274.88
2023-03-29T11:58:01.389Z,101274.88
2023-03-29T12:00:33.137Z,101276.56
2023-03-29T12:03:15.930Z,101279.28
2023-03-29T12:05:43.117Z,101251.91
2023-03-29T12:08:38.116Z,101265.25
2023-03-29T12:11:33.806Z,101263.47
2023-03-29T12:14:15.589Z,101260.91
2023-03-29T12:16:51.974Z,101250.34
2023-03-29T12:19:37.514Z,101246.75
2023-03-29T12:22:08.112Z,101243.25
2023-03-29T12:24:38.863Z,101235.28
2023-03-29T12:27:27.324Z,101230.03
2023-03-29T12:30:27.422Z,101222.97
2023-03-29T12:33:17.838Z,101214.22
2023-03-29T12:36:35.673Z,101214.22
2023-03-29T12:39:03.023Z,101206.31
2023-03-29T12:41:37.526Z,101197.44
2023-03-29T12:44:06.499Z,101200.97
2023-03-29T12:46:35.410Z,101203.59
2023-03-29T12:49:21.282Z,101192.13
2023-03-29T12:51:49.058Z,101194.78
2023-03-29T12:54:24.999Z,101193.06
2023-03-29T12:56:56.385Z,101190.41
2023-03-29T12:59:39.620Z,101177.22
2023-03-29T13:02:15.538Z,101182.47
2023-03-29T13:05:01.386Z,101168.31
2023-03-29T13:07:44.301Z,101178.06
2023-03-29T13:10:42.062Z,101170.13
2023-03-29T13:13:21.428Z,101172.78
2023-03-29T13:15:48.722Z,101155.13
2023-03-29T13:18:53.829Z,101155.13
2023-03-29T13:21:35.676Z,101151.56
2023-03-29T13:24:46.910Z,101149.78
2023-03-29T13:27:42.324Z,101149.78
2023-03-29T13:30:36.864Z,101147.16
2023-03-29T13:34:24.154Z,101138.28
2023-03-29T13:37:28.520Z,101143.63
2023-03-29T13:39:56.219Z,101140.09
2023-03-29T13:42:35.300Z,101139.22
2023-03-29T13:45:28.442Z,101141.84
2023-03-29T13:48:25.026Z,101136.56
2023-03-29T13:51:08.371Z,101131.22
2023-03-29T13:53:39.431Z,101122.38
2023-03-29T13:56:17.868Z,101112.59
2023-03-29T13:58:54.221Z,101111.75
2023-03-29T14:01:58.187Z,101117.97
2023-03-29T14:04:32.189Z,101115.31
2023-03-29T14:07:00.902Z,101125.06
2023-03-29T14:09:32.845Z,101110.00
2023-03-29T14:12:01.178Z,101105.59
2023-03-29T14:14:32.249Z,101105.59
2023-03-29T14:17:01.413Z,101102.91
2023-03-29T14:19:38.031Z,101080.78
2023-03-29T14:22:14.263Z,101076.34
2023-03-29T14:24:53.201Z,101078.06
2023-03-29T14:27:22.135Z,101060.34
2023-03-29T14:29:52.397Z,101059.50
2023-03-29T14:32:29.335Z,101063.91
2023-03-29T14:34:56.745Z,101058.63
2023-03-29T14:37:29.074Z,101059.47
2023-03-29T14:39:58.437Z,101052.41
2023-03-29T14:42:29.095Z,101052.44
2023-03-29T14:45:05.402Z,101051.53
2023-03-29T14:47:33.934Z,101056.00
2023-03-29T14:50:02.516Z,101053.31
2023-03-29T14:52:31.605Z,101057.72
2023-03-29T14:55:04.422Z,101061.28
2023-03-29T14:57:36.448Z,101063.97
2023-03-29T15:00:28.244Z,101048.06
2023-03-29T15:03:02.331Z,101049.84
2023-03-29T15:05:41.311Z,101029.50
2023-03-29T15:08:20.268Z,101028.66
2023-03-29T15:10:47.651Z,101030.41
2023-03-29T15:13:24.565Z,101025.97
2023-03-29T15:16:00.865Z,101027.78
2023-03-29T15:18:35.325Z,101026.91
2023-03-29T15:21:02.859Z,101026.03
2023-03-29T15:23:51.753Z,101018.06
2023-03-29T15:26:36.639Z,101006.56
2023-03-29T15:29:13.705Z,101002.16
2023-03-29T15:31:42.617Z,100995.97
2023-03-29T15:34:25.019Z,100991.53
2023-03-29T15:36:52.545Z,100988.00
2023-03-29T15:39:20.377Z,100980.06
2023-03-29T15:41:51.313Z,100981.81
2023-03-29T15:44:48.525Z,100983.59
2023-03-29T15:47:15.608Z,100973.88
2023-03-29T15:49:42.553Z,100965.91
2023-03-29T15:52:09.553Z,100962.41
2023-03-29T15:54:37.288Z,100950.03
2023-03-29T15:57:08.062Z,100946.47
2023-03-29T15:59:36.614Z,100950.94
2023-03-29T16:02:05.114Z,100938.53
2023-03-29T16:04:35.387Z,100950.91
2023-03-29T16:07:13.601Z,100941.19
2023-03-29T16:09:40.851Z,100932.38
2023-03-29T16:12:07.876Z,100931.47
2023-03-29T16:14:34.938Z,100924.41
2023-03-29T16:17:03.278Z,100922.66
2023-03-29T16:19:32.408Z,100920.03
2023-03-29T16:22:02.286Z,100919.16
2023-03-29T16:24:32.207Z,100913.84
2023-03-29T16:27:01.344Z,100916.50
2023-03-29T16:29:29.029Z,100913.84
2023-03-29T16:31:57.201Z,100907.69
2023-03-29T16:34:24.703Z,100912.09
2023-03-29T16:36:53.005Z,100912.97
2023-03-29T16:39:20.914Z,100912.09
2023-03-29T16:41:50.023Z,100892.66
2023-03-29T16:44:23.989Z,100899.75
2023-03-29T16:46:54.198Z,100896.19
2023-03-29T16:49:21.668Z,100886.50
2023-03-29T16:51:48.903Z,100890.03
2023-03-29T16:54:19.729Z,100887.38
2023-03-29T16:56:47.152Z,100882.97
2023-03-29T16:59:14.334Z,100876.78
2023-03-29T17:01:53.574Z,100874.16
2023-03-29T17:04:22.866Z,100871.50
2023-03-29T17:06:50.000Z,100879.47
2023-03-29T17:09:17.611Z,100875.06
2023-03-29T17:11:45.074Z,100873.34
2023-03-29T17:14:12.201Z,100868.94
2023-03-29T17:16:39.339Z,100865.41
2023-03-29T17:19:06.480Z,100854.81
2023-03-29T17:21:35.958Z,100860.13
2023-03-29T17:24:03.081Z,100856.59
2023-03-29T17:26:30.253Z,100851.28
2023-03-29T17:28:57.280Z,100844.22
2023-03-29T17:31:24.532Z,100841.63
2023-03-29T17:33:52.231Z,100848.69
2023-03-29T17:36:23.878Z,100852.22
2023-03-29T17:38:51.410Z,100839.84
2023-03-29T17:41:19.236Z,100844.28
2023-03-29T17:43:47.815Z,100847.81
2023-03-29T17:46:16.614Z,100852.22
2023-03-29T17:48:43.596Z,100846.06
2023-03-29T17:51:10.798Z,100844.31
2023-03-29T17:53:37.758Z,100846.06
2023-03-29T17:56:06.593Z,100835.47
2023-03-29T17:58:34.800Z,100831.97
2023-03-29T18:01:12.429Z,100830.16
2023-03-29T18:03:40.034Z,100831.91
2023-03-29T18:06:09.057Z,100831.91
2023-03-29T18:08:36.198Z,100834.56
2023-03-29T18:11:14.145Z,100822.22
2023-03-29T18:13:41.512Z,100828.41
2023-03-29T18:16:09.455Z,100823.97
2023-03-29T18:18:37.356Z,100823.97
2023-03-29T18:21:06.910Z,100828.38
2023-03-29T18:23:33.983Z,100828.38
2023-03-29T18:26:03.575Z,100831.03
2023-03-29T18:28:32.320Z,100832.75
2023-03-29T18:30:59.421Z,100830.09
2023-03-29T18:33:27.186Z,100823.03
2023-03-29T18:35:54.194Z,100826.56
2023-03-29T18:38:22.611Z,100830.09
2023-03-29T18:40:51.479Z,100824.78
2023-03-29T18:43:18.723Z,100814.22
2023-03-29T18:45:45.867Z,100819.47
2023-03-29T18:48:13.011Z,100818.56
2023-03-29T18:50:42.312Z,100816.81
2023-03-29T18:53:09.369Z,100813.25
2023-03-29T18:55:36.345Z,100815.97
2023-03-29T18:58:03.543Z,100816.03
2023-03-29T19:00:30.659Z,100804.56
2023-03-29T19:02:57.826Z,100800.19
2023-03-29T19:05:24.992Z,100798.41
2023-03-29T19:07:52.025Z,100785.16
2023-03-29T19:10:19.256Z,100784.31
2023-03-29T19:12:46.424Z,100772.88
2023-03-29T19:15:15.756Z,100757.84
2023-03-29T19:17:42.849Z,100750.78
2023-03-29T19:20:10.676Z,100739.34
2023-03-29T19:22:38.846Z,100745.50
2023-03-29T19:25:07.540Z,100738.41
2023-03-29T19:27:34.565Z,100745.34
2023-03-29T19:30:01.818Z,100740.06
2023-03-29T19:32:31.887Z,100755.84
2023-03-29T19:35:00.717Z,100746.16
2023-03-29T19:37:27.838Z,100755.81
2023-03-29T19:39:57.048Z,100748.78
2023-03-29T19:42:24.575Z,100748.75
2023-03-29T19:44:51.584Z,100740.81
2023-03-29T19:47:18.548Z,100737.31
2023-03-29T19:49:46.543Z,100731.16
2023-03-29T19:52:13.683Z,100740.81
2023-03-29T19:54:40.758Z,100716.13
2023-03-29T19:57:09.271Z,100720.56
2023-03-29T19:59:37.829Z,100709.13
2023-03-29T20:02:05.171Z,100717.88
2023-03-29T20:04:33.358Z,100713.47
2023-03-29T20:07:00.536Z,100712.59
2023-03-29T20:09:27.520Z,100707.31
2023-03-29T20:11:54.604Z,100703.78
2023-03-29T20:14:21.704Z,100689.69
2023-03-29T20:16:52.376Z,100672.09
2023-03-29T20:19:23.755Z,100671.19
2023-03-29T20:22:12.882Z,100670.28
2023-03-29T20:24:40.486Z,100668.50
2023-03-29T20:27:07.485Z,100659.75
2023-03-29T20:29:34.500Z,100657.13
2023-03-29T20:32:01.658Z,100648.34
2023-03-29T20:34:28.903Z,100651.84
2023-03-29T20:37:00.894Z,100643.91
2023-03-29T20:39:29.653Z,100645.69
2023-03-29T20:41:56.906Z,100650.97
2023-03-29T20:44:28.439Z,100650.97
2023-03-29T20:47:06.672Z,100641.25
2023-03-29T20:49:39.219Z,100648.28
2023-03-29T20:52:16.562Z,100643.00
2023-03-29T20:54:45.276Z,100648.28
2023-03-29T20:57:19.131Z,100651.78
2023-03-29T20:59:49.143Z,100646.50
2023-03-29T21:02:22.857Z,100639.44
2023-03-29T21:04:52.198Z,100632.41
2023-03-29T21:07:21.369Z,100629.78
2023-03-29T21:09:49.973Z,100632.41
2023-03-29T21:12:17.604Z,100625.38
2023-03-29T21:14:44.867Z,100613.94
2023-03-29T21:17:11.938Z,100612.19
2023-03-29T21:19:39.586Z,100607.78
2023-03-29T21:22:07.108Z,100603.38
2023-03-29T21:24:36.352Z,100598.09
2023-03-29T21:27:03.435Z,100605.13
2023-03-29T21:29:30.408Z,100597.22
2023-03-29T21:31:57.702Z,100599.84
2023-03-29T21:34:25.078Z,100600.72
2023-03-29T21:36:52.101Z,100598.97
2023-03-29T21:39:19.146Z,100595.47
2023-03-29T21:41:46.376Z,100593.72
2023-03-29T21:44:13.420Z,100594.59
2023-03-29T21:46:40.497Z,100590.19
2023-03-29T21:49:07.731Z,100591.94
2023-03-29T21:51:34.733Z,100587.56
2023-03-29T21:54:01.699Z,100585.78
2023-03-29T21:56:28.902Z,100589.25
2023-03-29T21:58:55.912Z,100584.84
2023-03-29T22:01:23.089Z,100576.06
2023-03-29T22:03:50.424Z,100585.72
2023-03-29T22:06:17.690Z,100576.94
2023-03-29T22:08:46.819Z,100584.84
2023-03-29T22:11:15.812Z,100583.09
2023-03-29T22:13:44.121Z,100581.31
2023-03-29T22:16:18.510Z,100583.97
2023-03-29T22:18:49.365Z,100582.19
2023-03-29T22:21:23.410Z,100582.19
2023-03-29T22:23:54.880Z,100593.59
2023-03-29T22:26:27.508Z,100589.19
2023-03-29T22:28:54.946Z,100582.16
2023-03-29T22:31:24.518Z,100584.81
2023-03-29T22:33:51.627Z,100566.34
2023-03-29T22:36:26.986Z,100565.47
2023-03-29T22:38:54.519Z,100556.66
2023-03-29T22:41:23.768Z,100560.19
2023-03-29T22:43:52.736Z,100556.69
2023-03-29T22:46:20.927Z,100564.53
2023-03-29T22:48:48.171Z,100562.72
2023-03-29T22:51:16.226Z,100566.34
2023-03-29T22:53:43.489Z,100562.00
2023-03-29T22:56:10.843Z,100551.53
2023-03-29T22:58:41.658Z,100550.69
2023-03-29T23:01:09.057Z,100538.44
2023-03-29T23:03:36.835Z,100522.63
2023-03-29T23:06:04.318Z,100517.34
2023-03-29T23:08:33.097Z,100509.44
2023-03-29T23:11:01.502Z,100514.72
2023-03-29T23:13:29.427Z,100514.69
2023-03-29T23:15:59.979Z,100525.28
2023-03-29T23:18:29.532Z,100523.53
2023-03-29T23:20:58.901Z,100532.31
2023-03-29T23:23:27.202Z,100531.44
2023-03-29T23:25:55.771Z,100527.91
2023-03-29T23:28:27.212Z,100514.72
2023-03-29T23:31:09.508Z,100498.00
2023-03-29T23:33:42.775Z,100498.88
2023-03-29T23:36:14.662Z,100500.63
2023-03-29T23:38:44.073Z,100513.84
2023-03-29T23:41:13.059Z,100502.41
2023-03-29T23:43:42.940Z,100508.53
2023-03-29T23:46:14.178Z,100511.19
2023-03-29T23:48:46.137Z,100502.38
2023-03-29T23:51:13.273Z,100488.31
2023-03-29T23:53:40.448Z,100489.19
2023-03-29T23:56:08.099Z,100488.31
2023-03-29T23:58:37.913Z,100488.31
